sensor_id;sensor_type;location;lat;lon;timestamp;P1;durP1;ratioP1;P2;durP2;ratioP2
51451;SDS011;37521;52.020;-1.740;2024-03-17T00:00:01;13.77;;;5.50;;
51451;SDS011;37521;52.020;-1.740;2024-03-17T00:02:30;12.88;;;4.72;;
51451;SDS011;37521;52.020;-1.740;2024-03-17T00:04:57;12.23;;;4.63;;
51451;SDS011;37521;52.020;-1.740;2024-03-17T00:07:25;12.38;;;4.78;;
51451;SDS011;37521;52.020;-1.740;2024-03-17T00:09:53;11.65;;;4.95;;
51451;SDS011;37521;52.020;-1.740;2024-03-17T00:12:19;13.35;;;4.75;;
51451;SDS011;37521;52.020;-1.740;2024-03-17T00:14:47;12.63;;;5.20;;
51451;SDS011;37521;52.020;-1.740;2024-03-17T00:17:13;9.15;;;4.10;;
51451;SDS011;37521;52.020;-1.740;2024-03-17T00:19:41;7.93;;;4.40;;
51451;SDS011;37521;52.020;-1.740;2024-03-17T00:22:09;11.48;;;4.28;;
51451;SDS011;37521;52.020;-1.740;2024-03-17T00:24:40;8.32;;;4.00;;
51451;SDS011;37521;52.020;-1.740;2024-03-17T00:27:09;7.10;;;4.03;;
51451;SDS011;37521;52.020;-1.740;2024-03-17T00:29:37;8.88;;;4.20;;
51451;SDS011;37521;52.020;-1.740;2024-03-17T00:32:05;11.85;;;4.55;;
51451;SDS011;37521;52.020;-1.740;2024-03-17T00:34:32;11.65;;;4.32;;
51451;SDS011;37521;52.020;-1.740;2024-03-17T00:36:59;7.05;;;3.58;;
51451;SDS011;37521;52.020;-1.740;2024-03-17T00:39:28;9.35;;;3.90;;
51451;SDS011;37521;52.020;-1.740;2024-03-17T00:41:56;7.78;;;3.85;;
51451;SDS011;37521;52.020;-1.740;2024-03-17T00:44:23;8.90;;;3.47;;
51451;SDS011;37521;52.020;-1.740;2024-03-17T00:46:50;8.90;;;4.00;;
51451;SDS011;37521;52.020;-1.740;2024-03-17T00:49:17;7.93;;;3.33;;
51451;SDS011;37521;52.020;-1.740;2024-03-17T00:51:44;7.82;;;3.72;;
51451;SDS011;37521;52.020;-1.740;2024-03-17T00:54:13;8.20;;;3.25;;
51451;SDS011;37521;52.020;-1.740;2024-03-17T00:56:40;7.72;;;3.20;;
51451;SDS011;37521;52.020;-1.740;2024-03-17T00:59:08;5.40;;;2.90;;
51451;SDS011;37521;52.020;-1.740;2024-03-17T01:01:35;5.05;;;2.97;;
51451;SDS011;37521;52.020;-1.740;2024-03-17T01:04:02;6.85;;;3.08;;
51451;SDS011;37521;52.020;-1.740;2024-03-17T01:06:29;6.75;;;3.38;;
51451;SDS011;37521;52.020;-1.740;2024-03-17T01:08:57;7.00;;;3.53;;
51451;SDS011;37521;52.020;-1.740;2024-03-17T01:11:24;7.80;;;3.67;;
51451;SDS011;37521;52.020;-1.740;2024-03-17T01:13:52;6.95;;;2.88;;
51451;SDS011;37521;52.020;-1.740;2024-03-17T01:16:20;9.68;;;3.40;;
51451;SDS011;37521;52.020;-1.740;2024-03-17T01:18:48;7.32;;;3.47;;
51451;SDS011;37521;52.020;-1.740;2024-03-17T01:21:15;6.70;;;3.25;;
51451;SDS011;37521;52.020;-1.740;2024-03-17T01:23:42;7.85;;;3.65;;
51451;SDS011;37521;52.020;-1.740;2024-03-17T01:26:09;4.80;;;2.85;;
51451;SDS011;37521;52.020;-1.740;2024-03-17T01:28:36;4.97;;;2.65;;
51451;SDS011;37521;52.020;-1.740;2024-03-17T01:31:05;5.57;;;2.70;;
51451;SDS011;37521;52.020;-1.740;2024-03-17T01:33:34;5.65;;;2.55;;
51451;SDS011;37521;52.020;-1.740;2024-03-17T01:36:01;6.47;;;1.98;;
51451;SDS011;37521;52.020;-1.740;2024-03-17T01:38:28;7.65;;;2.75;;
51451;SDS011;37521;52.020;-1.740;2024-03-17T01:40:55;7.15;;;2.65;;
51451;SDS011;37521;52.020;-1.740;2024-03-17T01:43:22;5.05;;;2.60;;
51451;SDS011;37521;52.020;-1.740;2024-03-17T01:45:49;4.18;;;2.03;;
51451;SDS011;37521;52.020;-1.740;2024-03-17T01:48:17;4.45;;;2.25;;
51451;SDS011;37521;52.020;-1.740;2024-03-17T01:50:46;5.20;;;2.17;;
51451;SDS011;37521;52.020;-1.740;2024-03-17T01:53:16;2.33;;;1.92;;
51451;SDS011;37521;52.020;-1.740;2024-03-17T01:55:43;3.42;;;1.90;;
51451;SDS011;37521;52.020;-1.740;2024-03-17T01:58:12;5.90;;;1.83;;
51451;SDS011;37521;52.020;-1.740;2024-03-17T02:00:39;3.33;;;2.10;;
51451;SDS011;37521;52.020;-1.740;2024-03-17T02:03:07;2.95;;;1.70;;
51451;SDS011;37521;52.020;-1.740;2024-03-17T02:05:34;3.67;;;1.73;;
51451;SDS011;37521;52.020;-1.740;2024-03-17T02:08:04;2.53;;;1.90;;
51451;SDS011;37521;52.020;-1.740;2024-03-17T02:10:31;5.45;;;2.03;;
51451;SDS011;37521;52.020;-1.740;2024-03-17T02:12:58;6.40;;;2.17;;
51451;SDS011;37521;52.020;-1.740;2024-03-17T02:15:26;6.05;;;1.80;;
51451;SDS011;37521;52.020;-1.740;2024-03-17T02:17:53;2.08;;;1.80;;
51451;SDS011;37521;52.020;-1.740;2024-03-17T02:20:20;3.05;;;1.90;;
51451;SDS011;37521;52.020;-1.740;2024-03-17T02:22:51;2.00;;;1.52;;
51451;SDS011;37521;52.020;-1.740;2024-03-17T02:25:20;3.05;;;2.15;;
51451;SDS011;37521;52.020;-1.740;2024-03-17T02:27:48;3.05;;;2.00;;
51451;SDS011;37521;52.020;-1.740;2024-03-17T02:30:14;4.00;;;1.80;;
51451;SDS011;37521;52.020;-1.740;2024-03-17T02:32:42;5.63;;;2.33;;
51451;SDS011;37521;52.020;-1.740;2024-03-17T02:35:08;2.72;;;2.10;;
51451;SDS011;37521;52.020;-1.740;2024-03-17T02:37:36;3.72;;;2.05;;
51451;SDS011;37521;52.020;-1.740;2024-03-17T02:40:05;2.80;;;1.90;;
51451;SDS011;37521;52.020;-1.740;2024-03-17T02:42:36;6.30;;;2.47;;
51451;SDS011;37521;52.020;-1.740;2024-03-17T02:45:06;3.95;;;1.70;;
51451;SDS011;37521;52.020;-1.740;2024-03-17T02:47:35;2.85;;;1.83;;
51451;SDS011;37521;52.020;-1.740;2024-03-17T02:50:03;4.43;;;2.10;;
51451;SDS011;37521;52.020;-1.740;2024-03-17T02:52:31;1.48;;;1.38;;
51451;SDS011;37521;52.020;-1.740;2024-03-17T02:54:59;2.42;;;1.90;;
51451;SDS011;37521;52.020;-1.740;2024-03-17T02:57:28;2.88;;;2.00;;
51451;SDS011;37521;52.020;-1.740;2024-03-17T02:59:56;2.70;;;1.80;;
51451;SDS011;37521;52.020;-1.740;2024-03-17T03:02:24;3.25;;;1.48;;
51451;SDS011;37521;52.020;-1.740;2024-03-17T03:04:51;3.10;;;1.80;;
51451;SDS011;37521;52.020;-1.740;2024-03-17T03:07:19;2.85;;;1.77;;
51451;SDS011;37521;52.020;-1.740;2024-03-17T03:09:46;4.43;;;1.80;;
51451;SDS011;37521;52.020;-1.740;2024-03-17T03:12:14;3.13;;;1.92;;
51451;SDS011;37521;52.020;-1.740;2024-03-17T03:14:43;2.53;;;1.23;;
51451;SDS011;37521;52.020;-1.740;2024-03-17T03:17:10;5.30;;;1.75;;
51451;SDS011;37521;52.020;-1.740;2024-03-17T03:19:38;2.95;;;1.83;;
51451;SDS011;37521;52.020;-1.740;2024-03-17T03:22:05;5.45;;;1.67;;
51451;SDS011;37521;52.020;-1.740;2024-03-17T03:24:33;2.75;;;1.83;;
51451;SDS011;37521;52.020;-1.740;2024-03-17T03:27:00;3.38;;;1.65;;
51451;SDS011;37521;52.020;-1.740;2024-03-17T03:29:30;3.35;;;1.58;;
51451;SDS011;37521;52.020;-1.740;2024-03-17T03:31:59;2.25;;;1.95;;
51451;SDS011;37521;52.020;-1.740;2024-03-17T03:34:26;2.28;;;1.42;;
51451;SDS011;37521;52.020;-1.740;2024-03-17T03:36:54;3.85;;;1.63;;
51451;SDS011;37521;52.020;-1.740;2024-03-17T03:39:22;3.20;;;2.20;;
51451;SDS011;37521;52.020;-1.740;2024-03-17T03:41:49;3.83;;;2.22;;
51451;SDS011;37521;52.020;-1.740;2024-03-17T03:44:17;3.00;;;1.42;;
51451;SDS011;37521;52.020;-1.740;2024-03-17T03:46:45;2.92;;;1.75;;
51451;SDS011;37521;52.020;-1.740;2024-03-17T03:49:14;3.70;;;1.77;;
51451;SDS011;37521;52.020;-1.740;2024-03-17T03:51:41;5.38;;;2.38;;
51451;SDS011;37521;52.020;-1.740;2024-03-17T03:54:09;2.28;;;2.03;;
51451;SDS011;37521;52.020;-1.740;2024-03-17T03:56:37;3.47;;;1.58;;
51451;SDS011;37521;52.020;-1.740;2024-03-17T03:59:05;1.98;;;1.58;;
51451;SDS011;37521;52.020;-1.740;2024-03-17T04:01:32;3.25;;;1.58;;
51451;SDS011;37521;52.020;-1.740;2024-03-17T04:04:00;3.28;;;1.55;;
51451;SDS011;37521;52.020;-1.740;2024-03-17T04:06:30;1.30;;;1.20;;
51451;SDS011;37521;52.020;-1.740;2024-03-17T04:08:58;1.77;;;1.52;;
51451;SDS011;37521;52.020;-1.740;2024-03-17T04:11:25;1.30;;;1.20;;
51451;SDS011;37521;52.020;-1.740;2024-03-17T04:13:52;1.10;;;0.95;;
51451;SDS011;37521;52.020;-1.740;2024-03-17T04:16:21;1.02;;;0.93;;
51451;SDS011;37521;52.020;-1.740;2024-03-17T04:18:49;1.60;;;1.17;;
51451;SDS011;37521;52.020;-1.740;2024-03-17T04:21:16;0.95;;;0.85;;
51451;SDS011;37521;52.020;-1.740;2024-03-17T04:23:45;0.80;;;0.60;;
51451;SDS011;37521;52.020;-1.740;2024-03-17T04:26:13;2.15;;;1.05;;
51451;SDS011;37521;52.020;-1.740;2024-03-17T04:28:40;1.73;;;1.08;;
51451;SDS011;37521;52.020;-1.740;2024-03-17T04:31:08;2.50;;;1.30;;
51451;SDS011;37521;52.020;-1.740;2024-03-17T04:33:37;1.65;;;1.25;;
51451;SDS011;37521;52.020;-1.740;2024-03-17T04:36:04;1.25;;;1.10;;
51451;SDS011;37521;52.020;-1.740;2024-03-17T04:38:34;2.25;;;1.25;;
51451;SDS011;37521;52.020;-1.740;2024-03-17T04:41:04;1.45;;;0.93;;
51451;SDS011;37521;52.020;-1.740;2024-03-17T04:43:34;2.13;;;1.33;;
51451;SDS011;37521;52.020;-1.740;2024-03-17T04:46:03;1.15;;;1.05;;
51451;SDS011;37521;52.020;-1.740;2024-03-17T04:48:33;2.78;;;1.67;;
51451;SDS011;37521;52.020;-1.740;2024-03-17T04:51:01;2.25;;;1.48;;
51451;SDS011;37521;52.020;-1.740;2024-03-17T04:53:28;4.57;;;2.17;;
51451;SDS011;37521;52.020;-1.740;2024-03-17T04:55:59;1.75;;;1.65;;
51451;SDS011;37521;52.020;-1.740;2024-03-17T04:58:28;4.03;;;1.83;;
51451;SDS011;37521;52.020;-1.740;2024-03-17T05:00:56;1.88;;;1.38;;
51451;SDS011;37521;52.020;-1.740;2024-03-17T05:03:23;3.15;;;1.70;;
51451;SDS011;37521;52.020;-1.740;2024-03-17T05:05:57;3.53;;;1.30;;
51451;SDS011;37521;52.020;-1.740;2024-03-17T05:08:27;2.72;;;1.23;;
51451;SDS011;37521;52.020;-1.740;2024-03-17T05:10:58;6.88;;;2.17;;
51451;SDS011;37521;52.020;-1.740;2024-03-17T05:13:26;3.13;;;1.88;;
51451;SDS011;37521;52.020;-1.740;2024-03-17T05:15:55;3.45;;;1.95;;
51451;SDS011;37521;52.020;-1.740;2024-03-17T05:18:23;2.35;;;2.15;;
51451;SDS011;37521;52.020;-1.740;2024-03-17T05:20:57;2.83;;;1.80;;
51451;SDS011;37521;52.020;-1.740;2024-03-17T05:23:27;4.85;;;2.33;;
51451;SDS011;37521;52.020;-1.740;2024-03-17T05:25:55;3.78;;;2.88;;
51451;SDS011;37521;52.020;-1.740;2024-03-17T05:28:24;4.20;;;2.03;;
51451;SDS011;37521;52.020;-1.740;2024-03-17T05:30:53;5.53;;;2.72;;
51451;SDS011;37521;52.020;-1.740;2024-03-17T05:33:23;4.68;;;2.33;;
51451;SDS011;37521;52.020;-1.740;2024-03-17T05:35:51;5.40;;;2.80;;
51451;SDS011;37521;52.020;-1.740;2024-03-17T05:38:20;6.65;;;2.67;;
51451;SDS011;37521;52.020;-1.740;2024-03-17T05:40:54;2.10;;;1.77;;
51451;SDS011;37521;52.020;-1.740;2024-03-17T05:43:22;2.17;;;1.83;;
51451;SDS011;37521;52.020;-1.740;2024-03-17T05:45:50;4.97;;;2.03;;
51451;SDS011;37521;52.020;-1.740;2024-03-17T05:48:19;2.25;;;2.05;;
51451;SDS011;37521;52.020;-1.740;2024-03-17T05:50:48;4.70;;;2.63;;
51451;SDS011;37521;52.020;-1.740;2024-03-17T05:53:16;8.43;;;2.60;;
51451;SDS011;37521;52.020;-1.740;2024-03-17T05:55:44;2.83;;;2.38;;
51451;SDS011;37521;52.020;-1.740;2024-03-17T05:58:12;2.85;;;2.15;;
51451;SDS011;37521;52.020;-1.740;2024-03-17T06:00:40;7.88;;;2.60;;
51451;SDS011;37521;52.020;-1.740;2024-03-17T06:03:08;3.83;;;2.15;;
51451;SDS011;37521;52.020;-1.740;2024-03-17T06:05:38;3.80;;;1.70;;
51451;SDS011;37521;52.020;-1.740;2024-03-17T06:08:07;4.03;;;2.22;;
51451;SDS011;37521;52.020;-1.740;2024-03-17T06:10:37;4.00;;;2.10;;
51451;SDS011;37521;52.020;-1.740;2024-03-17T06:13:08;3.83;;;1.92;;
51451;SDS011;37521;52.020;-1.740;2024-03-17T06:15:37;3.20;;;1.60;;
51451;SDS011;37521;52.020;-1.740;2024-03-17T06:18:05;2.20;;;1.38;;
51451;SDS011;37521;52.020;-1.740;2024-03-17T06:20:34;3.90;;;2.05;;
51451;SDS011;37521;52.020;-1.740;2024-03-17T06:23:03;2.17;;;1.42;;
51451;SDS011;37521;52.020;-1.740;2024-03-17T06:25:31;1.88;;;1.70;;
51451;SDS011;37521;52.020;-1.740;2024-03-17T06:27:58;3.08;;;1.80;;
51451;SDS011;37521;52.020;-1.740;2024-03-17T06:30:27;1.75;;;1.35;;
51451;SDS011;37521;52.020;-1.740;2024-03-17T06:32:55;1.88;;;1.23;;
51451;SDS011;37521;52.020;-1.740;2024-03-17T06:35:22;3.83;;;2.00;;
51451;SDS011;37521;52.020;-1.740;2024-03-17T06:37:52;2.05;;;1.80;;
51451;SDS011;37521;52.020;-1.740;2024-03-17T06:40:21;1.88;;;1.08;;
51451;SDS011;37521;52.020;-1.740;2024-03-17T06:42:48;2.38;;;1.65;;
51451;SDS011;37521;52.020;-1.740;2024-03-17T06:45:16;1.73;;;1.45;;
51451;SDS011;37521;52.020;-1.740;2024-03-17T06:47:46;2.28;;;1.15;;
51451;SDS011;37521;52.020;-1.740;2024-03-17T06:50:13;2.10;;;1.20;;
51451;SDS011;37521;52.020;-1.740;2024-03-17T06:52:41;2.38;;;1.52;;
51451;SDS011;37521;52.020;-1.740;2024-03-17T06:55:08;2.00;;;1.17;;
51451;SDS011;37521;52.020;-1.740;2024-03-17T06:57:40;3.72;;;1.90;;
51451;SDS011;37521;52.020;-1.740;2024-03-17T07:00:09;1.55;;;1.10;;
51451;SDS011;37521;52.020;-1.740;2024-03-17T07:02:39;1.33;;;1.15;;
51451;SDS011;37521;52.020;-1.740;2024-03-17T07:05:11;2.47;;;1.10;;
51451;SDS011;37521;52.020;-1.740;2024-03-17T07:07:41;1.23;;;1.13;;
51451;SDS011;37521;52.020;-1.740;2024-03-17T07:10:08;1.95;;;1.35;;
51451;SDS011;37521;52.020;-1.740;2024-03-17T07:12:38;1.63;;;1.40;;
51451;SDS011;37521;52.020;-1.740;2024-03-17T07:15:06;2.45;;;1.70;;
51451;SDS011;37521;52.020;-1.740;2024-03-17T07:17:34;1.70;;;1.23;;
51451;SDS011;37521;52.020;-1.740;2024-03-17T07:20:02;2.00;;;1.20;;
51451;SDS011;37521;52.020;-1.740;2024-03-17T07:22:33;1.80;;;1.08;;
51451;SDS011;37521;52.020;-1.740;2024-03-17T07:25:01;1.38;;;1.10;;
51451;SDS011;37521;52.020;-1.740;2024-03-17T07:27:28;1.23;;;0.70;;
51451;SDS011;37521;52.020;-1.740;2024-03-17T07:29:58;2.13;;;1.02;;
51451;SDS011;37521;52.020;-1.740;2024-03-17T07:32:26;1.15;;;1.05;;
51451;SDS011;37521;52.020;-1.740;2024-03-17T07:34:53;1.33;;;0.95;;
51451;SDS011;37521;52.020;-1.740;2024-03-17T07:37:21;1.67;;;1.00;;
51451;SDS011;37521;52.020;-1.740;2024-03-17T07:39:48;1.40;;;0.82;;
51451;SDS011;37521;52.020;-1.740;2024-03-17T07:42:16;0.70;;;0.70;;
51451;SDS011;37521;52.020;-1.740;2024-03-17T07:44:44;2.63;;;1.08;;
51451;SDS011;37521;52.020;-1.740;2024-03-17T07:47:13;1.83;;;0.82;;
51451;SDS011;37521;52.020;-1.740;2024-03-17T07:49:40;2.30;;;1.08;;
51451;SDS011;37521;52.020;-1.740;2024-03-17T07:52:08;1.02;;;0.88;;
51451;SDS011;37521;52.020;-1.740;2024-03-17T07:54:35;0.55;;;0.55;;
51451;SDS011;37521;52.020;-1.740;2024-03-17T07:57:03;0.80;;;0.80;;
51451;SDS011;37521;52.020;-1.740;2024-03-17T07:59:30;1.55;;;0.60;;
51451;SDS011;37521;52.020;-1.740;2024-03-17T08:01:58;1.23;;;0.63;;
51451;SDS011;37521;52.020;-1.740;2024-03-17T08:04:27;1.33;;;0.57;;
51451;SDS011;37521;52.020;-1.740;2024-03-17T08:06:56;0.47;;;0.47;;
51451;SDS011;37521;52.020;-1.740;2024-03-17T08:09:23;2.75;;;0.70;;
51451;SDS011;37521;52.020;-1.740;2024-03-17T08:11:52;1.15;;;0.57;;
51451;SDS011;37521;52.020;-1.740;2024-03-17T08:14:19;2.47;;;0.40;;
51451;SDS011;37521;52.020;-1.740;2024-03-17T08:16:46;1.38;;;0.40;;
51451;SDS011;37521;52.020;-1.740;2024-03-17T08:19:14;0.40;;;0.20;;
51451;SDS011;37521;52.020;-1.740;2024-03-17T08:21:43;0.28;;;0.25;;
51451;SDS011;37521;52.020;-1.740;2024-03-17T08:24:11;0.77;;;0.70;;
51451;SDS011;37521;52.020;-1.740;2024-03-17T08:26:38;1.08;;;0.47;;
51451;SDS011;37521;52.020;-1.740;2024-03-17T08:29:06;0.90;;;0.40;;
51451;SDS011;37521;52.020;-1.740;2024-03-17T08:31:34;0.30;;;0.30;;
51451;SDS011;37521;52.020;-1.740;2024-03-17T08:34:02;1.33;;;0.63;;
51451;SDS011;37521;52.020;-1.740;2024-03-17T08:36:29;0.77;;;0.50;;
51451;SDS011;37521;52.020;-1.740;2024-03-17T08:38:59;0.60;;;0.55;;
51451;SDS011;37521;52.020;-1.740;2024-03-17T08:41:27;1.13;;;0.60;;
51451;SDS011;37521;52.020;-1.740;2024-03-17T08:43:56;1.60;;;0.60;;
51451;SDS011;37521;52.020;-1.740;2024-03-17T08:46:24;1.23;;;0.60;;
51451;SDS011;37521;52.020;-1.740;2024-03-17T08:48:51;0.40;;;0.38;;
51451;SDS011;37521;52.020;-1.740;2024-03-17T08:51:19;0.80;;;0.80;;
51451;SDS011;37521;52.020;-1.740;2024-03-17T08:53:46;0.40;;;0.40;;
51451;SDS011;37521;52.020;-1.740;2024-03-17T08:56:15;0.68;;;0.50;;
51451;SDS011;37521;52.020;-1.740;2024-03-17T08:58:43;0.52;;;0.47;;
51451;SDS011;37521;52.020;-1.740;2024-03-17T09:01:11;0.57;;;0.40;;
51451;SDS011;37521;52.020;-1.740;2024-03-17T09:03:41;0.70;;;0.30;;
51451;SDS011;37521;52.020;-1.740;2024-03-17T09:06:13;0.28;;;0.28;;
51451;SDS011;37521;52.020;-1.740;2024-03-17T09:08:42;1.00;;;0.28;;
51451;SDS011;37521;52.020;-1.740;2024-03-17T09:11:11;0.20;;;0.20;;
51451;SDS011;37521;52.020;-1.740;2024-03-17T09:13:41;0.93;;;0.50;;
51451;SDS011;37521;52.020;-1.740;2024-03-17T09:16:08;0.57;;;0.30;;
51451;SDS011;37521;52.020;-1.740;2024-03-17T09:18:39;0.65;;;0.40;;
51451;SDS011;37521;52.020;-1.740;2024-03-17T09:21:07;2.15;;;0.30;;
51451;SDS011;37521;52.020;-1.740;2024-03-17T09:23:36;1.35;;;0.35;;
51451;SDS011;37521;52.020;-1.740;2024-03-17T09:26:04;0.60;;;0.32;;
51451;SDS011;37521;52.020;-1.740;2024-03-17T09:28:34;0.43;;;0.40;;
51451;SDS011;37521;52.020;-1.740;2024-03-17T09:31:04;0.55;;;0.30;;
51451;SDS011;37521;52.020;-1.740;2024-03-17T09:33:33;0.38;;;0.38;;
51451;SDS011;37521;52.020;-1.740;2024-03-17T09:36:01;0.20;;;0.20;;
51451;SDS011;37521;52.020;-1.740;2024-03-17T09:38:31;0.20;;;0.10;;
51451;SDS011;37521;52.020;-1.740;2024-03-17T09:40:59;0.75;;;0.30;;
51451;SDS011;37521;52.020;-1.740;2024-03-17T09:43:27;0.52;;;0.28;;
51451;SDS011;37521;52.020;-1.740;2024-03-17T09:45:55;0.30;;;0.20;;
51451;SDS011;37521;52.020;-1.740;2024-03-17T09:48:26;0.55;;;0.30;;
51451;SDS011;37521;52.020;-1.740;2024-03-17T09:50:54;0.30;;;0.30;;
51451;SDS011;37521;52.020;-1.740;2024-03-17T09:53:24;0.10;;;0.10;;
51451;SDS011;37521;52.020;-1.740;2024-03-17T09:55:54;0.20;;;0.20;;
51451;SDS011;37521;52.020;-1.740;2024-03-17T09:58:24;0.17;;;0.17;;
51451;SDS011;37521;52.020;-1.740;2024-03-17T10:00:52;0.70;;;0.30;;
51451;SDS011;37521;52.020;-1.740;2024-03-17T10:06:08;0.45;;;0.45;;
51451;SDS011;37521;52.020;-1.740;2024-03-17T10:08:42;0.17;;;0.17;;
51451;SDS011;37521;52.020;-1.740;2024-03-17T10:11:10;0.40;;;0.28;;
51451;SDS011;37521;52.020;-1.740;2024-03-17T10:13:39;0.10;;;0.10;;
51451;SDS011;37521;52.020;-1.740;2024-03-17T10:16:15;0.13;;;0.10;;
51451;SDS011;37521;52.020;-1.740;2024-03-17T10:18:49;0.20;;;0.20;;
51451;SDS011;37521;52.020;-1.740;2024-03-17T10:21:24;0.25;;;0.25;;
51451;SDS011;37521;52.020;-1.740;2024-03-17T10:24:06;0.30;;;0.30;;
51451;SDS011;37521;52.020;-1.740;2024-03-17T10:26:41;0.13;;;0.13;;
51451;SDS011;37521;52.020;-1.740;2024-03-17T10:29:22;0.43;;;0.40;;
51451;SDS011;37521;52.020;-1.740;2024-03-17T10:31:52;0.15;;;0.15;;
51451;SDS011;37521;52.020;-1.740;2024-03-17T10:34:23;0.30;;;0.28;;
51451;SDS011;37521;52.020;-1.740;2024-03-17T10:36:51;0.38;;;0.32;;
51451;SDS011;37521;52.020;-1.740;2024-03-17T10:39:24;0.30;;;0.20;;
51451;SDS011;37521;52.020;-1.740;2024-03-17T10:41:59;0.43;;;0.40;;
51451;SDS011;37521;52.020;-1.740;2024-03-17T10:44:27;0.80;;;0.20;;
51451;SDS011;37521;52.020;-1.740;2024-03-17T10:46:56;0.10;;;0.10;;
51451;SDS011;37521;52.020;-1.740;2024-03-17T10:49:27;0.75;;;0.28;;
51451;SDS011;37521;52.020;-1.740;2024-03-17T10:51:57;0.10;;;0.10;;
51451;SDS011;37521;52.020;-1.740;2024-03-17T10:54:26;0.10;;;0.10;;
51451;SDS011;37521;52.020;-1.740;2024-03-17T10:56:55;0.68;;;0.30;;
51451;SDS011;37521;52.020;-1.740;2024-03-17T10:59:26;0.20;;;0.20;;
51451;SDS011;37521;52.020;-1.740;2024-03-17T11:02:05;0.30;;;0.30;;
51451;SDS011;37521;52.020;-1.740;2024-03-17T11:04:50;0.38;;;0.38;;
51451;SDS011;37521;52.020;-1.740;2024-03-17T11:07:19;0.50;;;0.22;;
51451;SDS011;37521;52.020;-1.740;2024-03-17T11:09:47;0.25;;;0.13;;
51451;SDS011;37521;52.020;-1.740;2024-03-17T11:21:06;0.10;;;0.10;;
51451;SDS011;37521;52.020;-1.740;2024-03-17T11:23:56;0.13;;;0.13;;
51451;SDS011;37521;52.020;-1.740;2024-03-17T11:26:29;0.05;;;0.05;;
51451;SDS011;37521;52.020;-1.740;2024-03-17T11:28:58;0.35;;;0.35;;
51451;SDS011;37521;52.020;-1.740;2024-03-17T11:31:33;0.10;;;0.10;;
51451;SDS011;37521;52.020;-1.740;2024-03-17T11:34:06;0.20;;;0.20;;
51451;SDS011;37521;52.020;-1.740;2024-03-17T11:36:52;0.22;;;0.22;;
51451;SDS011;37521;52.020;-1.740;2024-03-17T11:39:20;0.00;;;0.00;;
51451;SDS011;37521;52.020;-1.740;2024-03-17T11:41:49;0.28;;;0.20;;
51451;SDS011;37521;52.020;-1.740;2024-03-17T11:44:23;0.17;;;0.17;;
51451;SDS011;37521;52.020;-1.740;2024-03-17T11:46:53;0.20;;;0.20;;
51451;SDS011;37521;52.020;-1.740;2024-03-17T11:49:21;0.25;;;0.20;;
51451;SDS011;37521;52.020;-1.740;2024-03-17T11:51:49;0.22;;;0.22;;
51451;SDS011;37521;52.020;-1.740;2024-03-17T11:54:18;0.20;;;0.20;;
51451;SDS011;37521;52.020;-1.740;2024-03-17T11:56:47;0.22;;;0.22;;
51451;SDS011;37521;52.020;-1.740;2024-03-17T11:59:15;0.45;;;0.40;;
51451;SDS011;37521;52.020;-1.740;2024-03-17T12:01:45;0.10;;;0.10;;
51451;SDS011;37521;52.020;-1.740;2024-03-17T12:04:13;0.50;;;0.50;;
51451;SDS011;37521;52.020;-1.740;2024-03-17T12:06:44;0.20;;;0.20;;
51451;SDS011;37521;52.020;-1.740;2024-03-17T12:09:16;1.02;;;0.30;;
51451;SDS011;37521;52.020;-1.740;2024-03-17T12:11:47;0.43;;;0.30;;
51451;SDS011;37521;52.020;-1.740;2024-03-17T12:14:18;0.47;;;0.47;;
51451;SDS011;37521;52.020;-1.740;2024-03-17T12:16:47;0.15;;;0.10;;
51451;SDS011;37521;52.020;-1.740;2024-03-17T12:19:17;0.30;;;0.30;;
51451;SDS011;37521;52.020;-1.740;2024-03-17T12:21:48;0.30;;;0.20;;
51451;SDS011;37521;52.020;-1.740;2024-03-17T12:24:18;0.20;;;0.20;;
51451;SDS011;37521;52.020;-1.740;2024-03-17T12:26:47;0.30;;;0.22;;
51451;SDS011;37521;52.020;-1.740;2024-03-17T12:29:24;0.20;;;0.20;;
51451;SDS011;37521;52.020;-1.740;2024-03-17T12:31:56;0.20;;;0.20;;
51451;SDS011;37521;52.020;-1.740;2024-03-17T12:34:24;0.10;;;0.10;;
51451;SDS011;37521;52.020;-1.740;2024-03-17T12:36:53;0.10;;;0.10;;
51451;SDS011;37521;52.020;-1.740;2024-03-17T12:39:23;0.20;;;0.10;;
51451;SDS011;37521;52.020;-1.740;2024-03-17T12:42:04;1.38;;;0.40;;
51451;SDS011;37521;52.020;-1.740;2024-03-17T12:44:32;0.22;;;0.10;;
51451;SDS011;37521;52.020;-1.740;2024-03-17T12:47:02;0.22;;;0.22;;
51451;SDS011;37521;52.020;-1.740;2024-03-17T12:49:29;0.17;;;0.10;;
51451;SDS011;37521;52.020;-1.740;2024-03-17T12:51:58;0.20;;;0.00;;
51451;SDS011;37521;52.020;-1.740;2024-03-17T12:54:28;1.23;;;0.30;;
51451;SDS011;37521;52.020;-1.740;2024-03-17T12:57:05;1.02;;;0.10;;
51451;SDS011;37521;52.020;-1.740;2024-03-17T12:59:51;0.10;;;0.03;;
51451;SDS011;37521;52.020;-1.740;2024-03-17T13:02:41;0.10;;;0.00;;
51451;SDS011;37521;52.020;-1.740;2024-03-17T13:05:16;1.30;;;0.17;;
51451;SDS011;37521;52.020;-1.740;2024-03-17T13:07:46;0.00;;;0.00;;
51451;SDS011;37521;52.020;-1.740;2024-03-17T13:10:15;0.93;;;0.10;;
51451;SDS011;37521;52.020;-1.740;2024-03-17T13:12:44;0.75;;;0.20;;
51451;SDS011;37521;52.020;-1.740;2024-03-17T13:15:12;0.00;;;0.00;;
51451;SDS011;37521;52.020;-1.740;2024-03-17T13:17:41;0.08;;;0.08;;
51451;SDS011;37521;52.020;-1.740;2024-03-17T13:20:11;0.10;;;0.10;;
51451;SDS011;37521;52.020;-1.740;2024-03-17T13:22:40;0.00;;;0.00;;
51451;SDS011;37521;52.020;-1.740;2024-03-17T13:25:13;0.20;;;0.10;;
51451;SDS011;37521;52.020;-1.740;2024-03-17T13:27:44;0.20;;;0.20;;
51451;SDS011;37521;52.020;-1.740;2024-03-17T13:30:12;0.77;;;0.13;;
51451;SDS011;37521;52.020;-1.740;2024-03-17T13:32:40;1.17;;;0.25;;
51451;SDS011;37521;52.020;-1.740;2024-03-17T13:35:14;0.00;;;0.00;;
51451;SDS011;37521;52.020;-1.740;2024-03-17T13:37:43;1.85;;;0.22;;
51451;SDS011;37521;52.020;-1.740;2024-03-17T13:40:13;0.20;;;0.10;;
51451;SDS011;37521;52.020;-1.740;2024-03-17T13:42:43;1.83;;;0.50;;
51451;SDS011;37521;52.020;-1.740;2024-03-17T13:45:11;1.50;;;0.15;;
51451;SDS011;37521;52.020;-1.740;2024-03-17T13:47:40;0.28;;;0.20;;
51451;SDS011;37521;52.020;-1.740;2024-03-17T13:50:09;1.38;;;0.25;;
51451;SDS011;37521;52.020;-1.740;2024-03-17T13:52:38;0.95;;;0.43;;
51451;SDS011;37521;52.020;-1.740;2024-03-17T13:55:06;0.30;;;0.10;;
51451;SDS011;37521;52.020;-1.740;2024-03-17T13:57:39;0.30;;;0.20;;
51451;SDS011;37521;52.020;-1.740;2024-03-17T14:00:09;0.38;;;0.20;;
51451;SDS011;37521;52.020;-1.740;2024-03-17T14:02:41;0.35;;;0.35;;
51451;SDS011;37521;52.020;-1.740;2024-03-17T14:05:11;0.88;;;0.73;;
51451;SDS011;37521;52.020;-1.740;2024-03-17T14:07:40;1.35;;;0.50;;
51451;SDS011;37521;52.020;-1.740;2024-03-17T14:10:09;0.40;;;0.38;;
51451;SDS011;37521;52.020;-1.740;2024-03-17T14:12:40;1.50;;;0.40;;
51451;SDS011;37521;52.020;-1.740;2024-03-17T14:15:10;1.23;;;0.40;;
51451;SDS011;37521;52.020;-1.740;2024-03-17T14:17:38;1.35;;;1.25;;
51451;SDS011;37521;52.020;-1.740;2024-03-17T14:20:07;0.20;;;0.20;;
51451;SDS011;37521;52.020;-1.740;2024-03-17T14:22:35;0.47;;;0.25;;
51451;SDS011;37521;52.020;-1.740;2024-03-17T14:25:04;0.73;;;0.40;;
51451;SDS011;37521;52.020;-1.740;2024-03-17T14:27:32;2.38;;;0.45;;
51451;SDS011;37521;52.020;-1.740;2024-03-17T14:30:00;1.13;;;0.38;;
51451;SDS011;37521;52.020;-1.740;2024-03-17T14:32:31;0.30;;;0.30;;
51451;SDS011;37521;52.020;-1.740;2024-03-17T14:34:58;0.55;;;0.30;;
51451;SDS011;37521;52.020;-1.740;2024-03-17T14:37:26;0.57;;;0.32;;
51451;SDS011;37521;52.020;-1.740;2024-03-17T14:39:54;3.35;;;0.60;;
51451;SDS011;37521;52.020;-1.740;2024-03-17T14:42:22;4.10;;;0.50;;
51451;SDS011;37521;52.020;-1.740;2024-03-17T14:44:50;1.17;;;0.57;;
51451;SDS011;37521;52.020;-1.740;2024-03-17T14:47:17;1.02;;;0.57;;
51451;SDS011;37521;52.020;-1.740;2024-03-17T14:49:47;1.67;;;0.38;;
51451;SDS011;37521;52.020;-1.740;2024-03-17T14:52:15;0.38;;;0.25;;
51451;SDS011;37521;52.020;-1.740;2024-03-17T14:54:43;1.38;;;0.38;;